Time;durP1;ratioP1;P1;durP2;ratioP2;P2;SDS_P1;SDS_P2;PMS_P1;PMS_P2;Temp;Humidity;BMP_temperature;BMP_pressure;BME280_temperature;BME280_humidity;BME280_pressure;Samples;Min_cycle;Max_cycle;Signal;HPM_P1;HPM_P2
2021/08/02 00:00:20;;;;;;;7.55;1.55;;;15.80;99.90;;;;;;5070385;28;25074;-69
2021/08/02 00:02:48;;;;;;;7.93;1.08;;;15.80;99.90;;;;;;5069628;28;25094;-67
2021/08/02 00:05:15;;;;;;;4.43;1.45;;;15.80;99.90;;;;;;5067895;28;25061;-67
2021/08/02 00:07:41;;;;;;;4.35;1.00;;;15.80;99.90;;;;;;5079030;28;25160;-67
2021/08/02 00:10:10;;;;;;;4.75;1.20;;;15.80;99.90;;;;;;5059464;28;25082;-67
2021/08/02 00:12:41;;;;;;;6.00;1.70;;;15.80;99.90;;;;;;5065723;28;25073;-67
2021/08/02 00:15:08;;;;;;;2.30;1.27;;;15.80;99.90;;;;;;5063210;28;25156;-67
2021/08/02 00:17:34;;;;;;;5.88;1.20;;;15.80;99.90;;;;;;5066941;28;25107;-67
2021/08/02 00:19:59;;;;;;;9.93;1.60;;;15.80;99.90;;;;;;5067376;28;25102;-67
2021/08/02 00:22:25;;;;;;;4.20;1.20;;;15.80;99.90;;;;;;5067772;28;25070;-66
2021/08/02 00:24:51;;;;;;;4.25;1.10;;;15.70;99.90;;;;;;5060674;28;25072;-67
2021/08/02 00:27:18;;;;;;;3.53;1.00;;;15.70;99.90;;;;;;5060031;28;25106;-67
2021/08/02 00:29:44;;;;;;;2.53;1.00;;;15.70;99.90;;;;;;5066259;28;25144;-69
2021/08/02 00:32:12;;;;;;;4.18;1.23;;;15.70;99.90;;;;;;5061005;28;25056;-67
2021/08/02 00:34:38;;;;;;;3.85;1.10;;;15.70;99.90;;;;;;5057902;28;25146;-67
2021/08/02 00:37:07;;;;;;;8.40;1.48;;;15.70;99.90;;;;;;5071666;28;25067;-69
2021/08/02 00:39:41;;;;;;;11.55;1.65;;;15.70;99.90;;;;;;5083042;28;25049;-69
2021/08/02 00:42:38;;;;;;;6.70;1.63;;;15.60;99.90;;;;;;5087748;28;25067;-68
2021/08/02 00:45:11;;;;;;;7.18;1.58;;;15.60;99.90;;;;;;5067487;28;25052;-68
2021/08/02 00:47:53;;;;;;;8.40;1.65;;;15.60;99.90;;;;;;5065148;28;25068;-67
2021/08/02 00:50:21;;;;;;;3.70;1.38;;;15.60;99.90;;;;;;5067081;28;25066;-68
2021/08/02 00:52:55;;;;;;;7.10;1.38;;;15.70;99.90;;;;;;5064835;28;25115;-67
2021/08/02 00:55:22;;;;;;;6.45;1.35;;;15.80;99.90;;;;;;5066806;28;25152;-68
2021/08/02 00:57:49;;;;;;;2.03;1.10;;;15.80;99.90;;;;;;5072900;28;25078;-67
2021/08/02 01:00:17;;;;;;;5.50;1.35;;;15.80;99.90;;;;;;5061009;28;25083;-68
2021/08/02 01:02:48;;;;;;;4.25;1.15;;;15.90;99.90;;;;;;5061815;28;25131;-66
2021/08/02 01:05:14;;;;;;;6.15;1.27;;;15.90;99.90;;;;;;5071003;28;25062;-68
2021/08/02 01:08:03;;;;;;;7.13;1.38;;;15.90;99.90;;;;;;5077897;28;25155;-67
2021/08/02 01:10:31;;;;;;;4.40;1.40;;;16.00;99.90;;;;;;5064956;28;25124;-67
2021/08/02 01:13:01;;;;;;;9.20;1.35;;;15.90;99.90;;;;;;5062919;28;25075;-69
2021/08/02 01:15:29;;;;;;;6.57;1.40;;;16.00;99.90;;;;;;5065133;28;25130;-67
2021/08/02 01:17:56;;;;;;;6.20;1.20;;;16.10;99.90;;;;;;5065862;28;25092;-67
2021/08/02 01:20:22;;;;;;;4.07;1.33;;;16.20;99.90;;;;;;5064271;28;25080;-68
2021/08/02 01:22:48;;;;;;;7.72;1.50;;;16.30;99.90;;;;;;5074276;28;24784;-68
2021/08/02 01:25:33;;;;;;;4.28;1.50;;;16.30;99.90;;;;;;5068321;28;25062;-67
2021/08/02 01:28:13;;;;;;;6.95;1.38;;;16.30;99.90;;;;;;5055338;28;25072;-66
2021/08/02 01:30:40;;;;;;;4.97;1.33;;;16.30;99.90;;;;;;5066484;28;25060;-67
2021/08/02 01:33:06;;;;;;;4.75;1.40;;;16.20;99.90;;;;;;5057847;28;25125;-66
2021/08/02 01:35:32;;;;;;;8.23;1.63;;;16.20;99.90;;;;;;5060296;28;25058;-67
2021/08/02 01:37:57;;;;;;;10.70;1.58;;;16.30;99.90;;;;;;5064006;28;25109;-66
2021/08/02 01:40:23;;;;;;;7.30;1.60;;;16.40;99.90;;;;;;5050565;28;25169;-67
2021/08/02 01:42:49;;;;;;;6.28;1.65;;;16.50;99.90;;;;;;5063341;28;25071;-67
2021/08/02 01:45:15;;;;;;;5.32;1.75;;;16.50;99.90;;;;;;5061505;28;25062;-66
2021/08/02 01:47:57;;;;;;;3.53;1.27;;;16.50;99.90;;;;;;5055127;28;25139;-67
2021/08/02 01:50:45;;;;;;;10.27;1.83;;;16.60;99.90;;;;;;5065439;28;25067;-67
2021/08/02 01:53:36;;;;;;;11.80;1.60;;;16.30;99.90;;;;;;5062772;28;25075;-67
2021/08/02 01:56:31;;;;;;;4.85;1.75;;;16.20;99.90;;;;;;5061575;28;25058;-68
2021/08/02 01:59:07;;;;;;;3.72;1.75;;;16.10;99.90;;;;;;5041782;28;25087;-67
2021/08/02 02:01:36;;;;;;;3.40;1.90;;;16.00;99.90;;;;;;5065215;28;25141;-67
2021/08/02 02:04:04;;;;;;;6.07;1.73;;;15.90;99.90;;;;;;5060882;28;25084;-67
2021/08/02 02:06:34;;;;;;;5.53;1.67;;;16.00;99.90;;;;;;5067391;28;25065;-67
2021/08/02 02:09:03;;;;;;;5.43;1.80;;;15.90;99.90;;;;;;5058479;28;25066;-67
2021/08/02 02:11:31;;;;;;;3.22;1.85;;;15.90;99.90;;;;;;5061435;28;25064;-68
2021/08/02 02:14:02;;;;;;;7.25;1.70;;;15.90;99.90;;;;;;5066077;28;25063;-68
2021/08/02 02:16:30;;;;;;;5.88;1.63;;;16.00;99.90;;;;;;5066084;28;25164;-66
2021/08/02 02:19:01;;;;;;;7.32;2.25;;;16.00;99.90;;;;;;5062066;28;25067;-67
2021/08/02 02:21:29;;;;;;;5.07;1.90;;;16.10;99.90;;;;;;5060138;28;25108;-68
2021/08/02 02:23:56;;;;;;;5.57;1.92;;;16.10;99.90;;;;;;5048354;28;25074;-66
2021/08/02 02:26:25;;;;;;;3.78;1.60;;;16.10;99.90;;;;;;5066415;28;25069;-67
2021/08/02 02:28:51;;;;;;;5.45;1.90;;;16.10;99.90;;;;;;5061269;28;25053;-67
2021/08/02 02:31:19;;;;;;;9.32;2.05;;;15.90;99.90;;;;;;5062135;28;25073;-67
2021/08/02 02:33:47;;;;;;;4.47;2.03;;;15.90;99.90;;;;;;5055974;28;25098;-66
2021/08/02 02:36:14;;;;;;;7.70;1.52;;;15.90;99.90;;;;;;5056774;28;25078;-67
2021/08/02 02:38:41;;;;;;;4.28;1.55;;;15.90;99.90;;;;;;5066264;28;25064;-67
2021/08/02 02:41:06;;;;;;;5.53;2.08;;;15.90;99.90;;;;;;5072679;28;25126;-66
2021/08/02 02:43:32;;;;;;;7.30;1.95;;;15.90;99.90;;;;;;5069769;28;25079;-68
2021/08/02 02:45:59;;;;;;;4.38;1.63;;;15.80;99.90;;;;;;5061716;28;25116;-67
2021/08/02 02:48:25;;;;;;;10.05;2.13;;;15.80;99.90;;;;;;5059857;28;25139;-66
2021/08/02 02:50:52;;;;;;;12.05;2.28;;;15.70;99.90;;;;;;5064453;28;25057;-68
2021/08/02 02:53:19;;;;;;;6.95;1.90;;;15.70;99.90;;;;;;5065934;28;25074;-67
2021/08/02 02:55:46;;;;;;;5.78;1.90;;;15.60;99.90;;;;;;5065957;28;25060;-68
2021/08/02 02:58:12;;;;;;;6.72;1.98;;;15.60;99.90;;;;;;5076658;28;25073;-68
2021/08/02 03:00:38;;;;;;;4.43;1.90;;;15.50;99.90;;;;;;5076677;28;25096;-68
2021/08/02 03:03:07;;;;;;;7.10;1.98;;;15.50;99.90;;;;;;5073973;28;25078;-66
2021/08/02 03:05:36;;;;;;;8.27;1.55;;;15.50;99.90;;;;;;5057168;28;25070;-68
2021/08/02 03:08:05;;;;;;;8.35;1.65;;;15.50;99.90;;;;;;5068710;28;25082;-68
2021/08/02 03:10:31;;;;;;;11.25;1.80;;;15.60;99.90;;;;;;5069987;28;25051;-69
2021/08/02 03:12:57;;;;;;;4.15;1.85;;;15.60;99.90;;;;;;5067644;28;25060;-68
2021/08/02 03:15:22;;;;;;;9.18;1.65;;;15.70;99.90;;;;;;5057798;28;25074;-67
2021/08/02 03:17:48;;;;;;;7.18;2.08;;;15.60;99.90;;;;;;5063616;28;25087;-67
2021/08/02 03:20:14;;;;;;;6.90;1.77;;;15.60;99.90;;;;;;5061262;28;25104;-67
2021/08/02 03:22:50;;;;;;;6.63;1.90;;;15.60;99.90;;;;;;5066582;28;25067;-67
2021/08/02 03:25:37;;;;;;;12.05;2.10;;;15.60;99.90;;;;;;5073497;28;25069;-68
2021/08/02 03:28:09;;;;;;;7.22;2.13;;;15.70;99.90;;;;;;5071401;28;25050;-67
2021/08/02 03:30:37;;;;;;;3.70;1.73;;;15.70;99.90;;;;;;5088358;28;25080;-67
2021/08/02 03:33:04;;;;;;;6.43;1.95;;;15.60;99.90;;;;;;5089442;28;25114;-68
2021/08/02 03:35:32;;;;;;;3.95;1.52;;;15.60;99.90;;;;;;5094487;28;25071;-66
2021/08/02 03:37:58;;;;;;;3.88;1.83;;;15.60;99.90;;;;;;5088601;28;25086;-68
2021/08/02 03:40:25;;;;;;;7.13;1.77;;;15.60;99.90;;;;;;5082336;28;25064;-67
2021/08/02 03:42:51;;;;;;;5.95;1.60;;;15.50;99.90;;;;;;5081538;28;25310;-68
2021/08/02 03:45:19;;;;;;;4.50;1.65;;;15.50;99.90;;;;;;5078850;28;25081;-67
2021/08/02 03:47:45;;;;;;;5.03;1.60;;;15.40;99.90;;;;;;5079728;28;25058;-67
2021/08/02 03:50:12;;;;;;;5.05;1.73;;;15.40;99.90;;;;;;5068018;28;25074;-67
2021/08/02 03:52:38;;;;;;;3.90;1.20;;;15.40;99.90;;;;;;5076952;28;25079;-67
2021/08/02 03:55:06;;;;;;;6.28;1.80;;;15.40;99.90;;;;;;5072672;28;25060;-67
2021/08/02 03:57:32;;;;;;;5.65;2.00;;;15.30;99.90;;;;;;5054284;28;25096;-68
2021/08/02 03:59:58;;;;;;;2.75;1.80;;;15.30;99.90;;;;;;5069023;28;25074;-67
2021/08/02 04:02:24;;;;;;;7.47;1.58;;;15.20;99.90;;;;;;5059656;28;25094;-67
2021/08/02 04:04:49;;;;;;;4.82;1.90;;;15.10;99.90;;;;;;5064320;28;25083;-67
2021/08/02 04:07:15;;;;;;;6.32;1.80;;;15.20;99.90;;;;;;5068909;28;25142;-68
2021/08/02 04:09:41;;;;;;;5.03;1.65;;;15.20;99.90;;;;;;5064720;28;25014;-67
2021/08/02 04:12:09;;;;;;;6.35;2.28;;;15.20;99.90;;;;;;5056871;28;25159;-67
2021/08/02 04:14:35;;;;;;;5.13;2.03;;;15.10;99.90;;;;;;5067074;28;25153;-67
2021/08/02 04:17:01;;;;;;;5.53;1.90;;;15.10;99.90;;;;;;5066864;28;25080;-67
2021/08/02 04:19:27;;;;;;;8.43;1.83;;;15.10;99.90;;;;;;5057670;28;25077;-67
2021/08/02 04:21:52;;;;;;;5.78;2.15;;;15.00;99.90;;;;;;5059145;28;25065;-67
2021/08/02 04:24:18;;;;;;;4.88;2.00;;;14.90;99.90;;;;;;5069605;28;25093;-68
2021/08/02 04:26:44;;;;;;;6.40;2.33;;;14.80;99.90;;;;;;5063409;28;25128;-68
2021/08/02 04:29:10;;;;;;;4.45;1.80;;;14.80;99.90;;;;;;5066654;28;25062;-67
2021/08/02 04:31:35;;;;;;;2.08;1.80;;;14.70;99.90;;;;;;5068632;28;25084;-68
2021/08/02 04:34:01;;;;;;;4.10;2.05;;;14.80;99.90;;;;;;5060250;28;25101;-68
2021/08/02 04:36:26;;;;;;;8.40;2.88;;;14.60;99.90;;;;;;5061922;28;25187;-67
2021/08/02 04:38:52;;;;;;;10.80;2.40;;;14.60;99.90;;;;;;5064396;28;25061;-68
2021/08/02 04:41:18;;;;;;;2.67;2.15;;;14.70;99.90;;;;;;5064477;28;25073;-66
2021/08/02 04:43:44;;;;;;;10.23;2.38;;;14.60;99.90;;;;;;5068929;28;25124;-68
2021/08/02 04:46:09;;;;;;;7.22;2.05;;;14.50;99.90;;;;;;5072186;28;25165;-68
2021/08/02 04:48:35;;;;;;;5.57;2.20;;;14.60;99.90;;;;;;5063864;28;25079;-68
2021/08/02 04:51:01;;;;;;;3.45;1.88;;;14.70;99.90;;;;;;5058018;28;25081;-67
2021/08/02 04:53:26;;;;;;;7.75;2.20;;;14.90;99.90;;;;;;5070893;28;25072;-68
2021/08/02 04:55:52;;;;;;;8.65;2.30;;;14.90;99.90;;;;;;5063582;28;25104;-68
2021/08/02 04:58:17;;;;;;;3.35;2.20;;;14.70;99.90;;;;;;5065030;28;25061;-68
2021/08/02 05:00:43;;;;;;;4.90;1.80;;;14.70;99.90;;;;;;5066403;28;25065;-68
2021/08/02 05:03:09;;;;;;;6.38;2.30;;;14.70;99.90;;;;;;5061315;28;25064;-68
2021/08/02 05:05:35;;;;;;;6.95;2.30;;;14.70;99.90;;;;;;5063547;28;25061;-68
2021/08/02 05:08:00;;;;;;;3.97;1.98;;;14.80;99.90;;;;;;5050066;28;25074;-67
2021/08/02 05:10:26;;;;;;;7.85;2.10;;;14.80;99.90;;;;;;5064346;28;25066;-68
2021/08/02 05:12:52;;;;;;;2.13;1.83;;;14.80;99.90;;;;;;5067069;28;25122;-68
2021/08/02 05:15:18;;;;;;;8.77;2.25;;;14.80;99.90;;;;;;5047210;28;25061;-68
2021/08/02 05:17:43;;;;;;;9.93;2.47;;;14.70;99.90;;;;;;5060613;28;25059;-68
2021/08/02 05:20:09;;;;;;;6.57;2.45;;;14.80;99.90;;;;;;5059756;28;25138;-67
2021/08/02 05:22:35;;;;;;;7.07;2.40;;;14.90;99.90;;;;;;5054815;28;25074;-67
2021/08/02 05:25:01;;;;;;;10.70;2.38;;;14.80;99.90;;;;;;5057098;28;25155;-68
2021/08/02 05:27:26;;;;;;;4.78;2.00;;;14.90;99.90;;;;;;5062335;28;25069;-68
2021/08/02 05:29:52;;;;;;;11.65;2.85;;;15.00;99.90;;;;;;5054406;28;25071;-67
2021/08/02 05:32:18;;;;;;;9.27;3.00;;;15.00;99.90;;;;;;5059275;28;25070;-67
2021/08/02 05:34:44;;;;;;;7.72;2.80;;;15.00;99.90;;;;;;5058366;28;25096;-67
2021/08/02 05:37:12;;;;;;;8.65;2.47;;;14.90;99.90;;;;;;5058516;28;25078;-68
2021/08/02 05:39:37;;;;;;;4.80;2.20;;;15.00;99.90;;;;;;5065985;28;25090;-68
2021/08/02 05:42:04;;;;;;;11.00;3.15;;;15.10;99.90;;;;;;5069069;28;25155;-68
2021/08/02 05:44:30;;;;;;;6.80;2.28;;;15.20;99.90;;;;;;5061119;28;25090;-67
2021/08/02 05:46:56;;;;;;;6.85;2.08;;;15.30;99.90;;;;;;5055644;28;25061;-68
2021/08/02 05:49:21;;;;;;;10.82;2.28;;;15.40;99.90;;;;;;5066082;28;25052;-67
2021/08/02 05:51:49;;;;;;;6.63;2.55;;;15.50;99.90;;;;;;5068306;28;25094;-67
2021/08/02 05:54:14;;;;;;;8.45;1.95;;;15.60;99.90;;;;;;5068978;28;25067;-67
2021/08/02 05:56:40;;;;;;;5.55;2.08;;;15.70;99.90;;;;;;5049113;28;25116;-69
2021/08/02 05:59:06;;;;;;;9.50;2.20;;;15.90;99.90;;;;;;5069765;28;25127;-67
2021/08/02 06:01:31;;;;;;;10.90;2.13;;;16.20;99.90;;;;;;5061214;28;25072;-67
2021/08/02 06:03:58;;;;;;;7.55;1.95;;;16.20;99.90;;;;;;5070068;28;25069;-68
2021/08/02 06:06:23;;;;;;;6.47;1.67;;;15.90;99.90;;;;;;5067477;28;25063;-68
2021/08/02 06:08:49;;;;;;;5.35;1.85;;;15.80;99.90;;;;;;5069328;28;25109;-68
2021/08/02 06:11:15;;;;;;;5.10;1.10;;;15.90;99.90;;;;;;5054703;28;25069;-69
2021/08/02 06:13:40;;;;;;;5.68;1.60;;;15.90;99.90;;;;;;5067750;28;25066;-67
2021/08/02 06:16:06;;;;;;;2.90;1.30;;;15.90;99.90;;;;;;5054689;28;25145;-68
2021/08/02 06:18:31;;;;;;;9.25;1.65;;;15.90;99.90;;;;;;5058880;28;25128;-65
2021/08/02 06:20:57;;;;;;;10.30;1.40;;;15.90;99.90;;;;;;5066615;28;25112;-66
2021/08/02 06:23:22;;;;;;;8.00;1.48;;;15.90;99.90;;;;;;5067394;28;25067;-67
2021/08/02 06:25:48;;;;;;;9.10;1.30;;;16.10;99.90;;;;;;5072551;28;25054;-66
2021/08/02 06:28:13;;;;;;;8.10;1.48;;;16.10;99.90;;;;;;5065839;28;25071;-66
2021/08/02 06:30:39;;;;;;;2.78;0.77;;;16.10;99.90;;;;;;5074711;28;25054;-68
2021/08/02 06:33:04;;;;;;;6.78;1.40;;;16.20;99.90;;;;;;5069672;28;25057;-68
2021/08/02 06:35:30;;;;;;;8.48;1.98;;;16.40;99.90;;;;;;5072716;28;25050;-68
2021/08/02 06:37:56;;;;;;;7.28;1.17;;;16.30;99.90;;;;;;5062033;28;25097;-66
2021/08/02 06:40:21;;;;;;;12.18;1.58;;;16.40;99.90;;;;;;5086479;28;25100;-68
2021/08/02 06:42:47;;;;;;;6.57;1.45;;;16.60;99.90;;;;;;5077211;28;25136;-69
2021/08/02 06:45:13;;;;;;;3.75;1.10;;;16.90;99.90;;;;;;5074754;28;25073;-69
2021/08/02 06:47:39;;;;;;;5.45;1.20;;;17.00;99.90;;;;;;5071059;28;25085;-67
2021/08/02 06:50:06;;;;;;;2.35;1.00;;;16.90;99.90;;;;;;5082179;28;25096;-68
2021/08/02 06:52:33;;;;;;;5.03;0.93;;;17.20;99.90;;;;;;5083578;28;25069;-68
2021/08/02 06:54:59;;;;;;;5.18;1.05;;;17.20;99.90;;;;;;5089842;28;25125;-68
2021/08/02 06:57:25;;;;;;;6.03;1.40;;;16.90;99.90;;;;;;5077557;28;25068;-68
2021/08/02 06:59:55;;;;;;;4.85;1.17;;;16.70;99.90;;;;;;5070945;28;25075;-68
2021/08/02 07:02:21;;;;;;;5.35;1.15;;;17.00;99.90;;;;;;5071906;28;25095;-67
2021/08/02 07:04:46;;;;;;;5.63;1.35;;;17.20;99.90;;;;;;5070181;28;25127;-67
2021/08/02 07:07:12;;;;;;;3.85;1.02;;;17.40;99.90;;;;;;5070543;28;25065;-68
2021/08/02 07:09:37;;;;;;;3.53;1.50;;;17.40;99.90;;;;;;5070760;28;25130;-66
2021/08/02 07:12:03;;;;;;;3.90;1.08;;;17.20;99.90;;;;;;5051191;28;25152;-68
2021/08/02 07:14:29;;;;;;;3.83;1.10;;;16.90;99.90;;;;;;5069223;28;25108;-67
2021/08/02 07:16:54;;;;;;;8.52;1.52;;;17.10;99.90;;;;;;5069157;28;25081;-67
2021/08/02 07:19:21;;;;;;;6.70;1.05;;;17.20;99.90;;;;;;5058656;28;25149;-66
2021/08/02 07:21:46;;;;;;;3.35;1.52;;;17.30;99.90;;;;;;5066017;28;25078;-67
2021/08/02 07:24:12;;;;;;;4.63;1.40;;;17.30;99.90;;;;;;5059885;28;25165;-67
2021/08/02 07:26:38;;;;;;;4.85;1.23;;;17.50;99.90;;;;;;5047930;28;25135;-69
2021/08/02 07:29:04;;;;;;;3.25;1.38;;;17.40;99.90;;;;;;5069738;28;25072;-66
2021/08/02 07:31:30;;;;;;;8.45;1.75;;;17.30;99.90;;;;;;5055717;28;25068;-66
2021/08/02 07:33:55;;;;;;;5.75;1.30;;;17.10;99.90;;;;;;5059614;28;25077;-65
2021/08/02 07:36:21;;;;;;;8.35;1.20;;;17.20;99.90;;;;;;5058504;28;25069;-66
2021/08/02 07:38:47;;;;;;;6.32;1.40;;;17.40;99.90;;;;;;5064521;28;25128;-68
2021/08/02 07:41:14;;;;;;;2.08;1.02;;;17.00;99.90;;;;;;5068296;28;25089;-67
2021/08/02 07:43:39;;;;;;;7.75;1.20;;;16.90;99.90;;;;;;5058313;28;25141;-68
2021/08/02 07:46:05;;;;;;;2.90;1.10;;;17.00;99.90;;;;;;5068697;28;25056;-67
2021/08/02 07:48:31;;;;;;;6.95;1.40;;;17.20;99.90;;;;;;5068558;28;25056;-67
2021/08/02 07:50:56;;;;;;;3.47;1.25;;;17.80;99.90;;;;;;5069524;28;25129;-66
2021/08/02 07:53:22;;;;;;;3.05;1.10;;;18.20;99.90;;;;;;5068793;28;25158;-67
2021/08/02 07:55:48;;;;;;;4.00;1.30;;;18.20;99.90;;;;;;5070381;28;25098;-67
2021/08/02 07:58:13;;;;;;;4.82;1.10;;;18.20;99.90;;;;;;5083110;28;25054;-66
2021/08/02 08:00:39;;;;;;;5.50;1.33;;;17.60;99.90;;;;;;5069949;28;25144;-68
2021/08/02 08:03:05;;;;;;;4.95;1.08;;;17.40;99.90;;;;;;5068189;28;25145;-67
2021/08/02 08:05:30;;;;;;;6.45;1.13;;;17.20;99.90;;;;;;5064834;28;25118;-67
2021/08/02 08:07:56;;;;;;;4.32;1.10;;;17.50;99.90;;;;;;5081257;28;25071;-70
2021/08/02 08:10:24;;;;;;;6.95;1.08;;;17.50;99.90;;;;;;5069235;28;25078;-67
2021/08/02 08:12:50;;;;;;;4.57;0.85;;;17.40;99.90;;;;;;5069556;28;25083;-68
2021/08/02 08:15:18;;;;;;;7.32;1.48;;;17.80;99.90;;;;;;5068128;28;25154;-67
2021/08/02 08:17:45;;;;;;;6.65;1.33;;;18.20;99.90;;;;;;5064621;28;25155;-68
2021/08/02 08:20:14;;;;;;;3.38;1.45;;;18.00;99.90;;;;;;5066452;28;25152;-69
2021/08/02 08:22:40;;;;;;;5.95;1.10;;;17.70;99.90;;;;;;5057332;28;25093;-67
2021/08/02 08:25:07;;;;;;;7.05;1.27;;;17.60;99.90;;;;;;5064367;28;25071;-69
2021/08/02 08:27:33;;;;;;;4.45;1.15;;;17.60;99.90;;;;;;5067425;28;25072;-66
2021/08/02 08:29:58;;;;;;;2.05;0.80;;;17.70;99.90;;;;;;5063130;28;25093;-68
2021/08/02 08:32:24;;;;;;;7.45;1.27;;;18.00;99.90;;;;;;5070068;28;25072;-68
2021/08/02 08:34:50;;;;;;;4.32;1.00;;;17.90;99.90;;;;;;5048134;28;25068;-66
2021/08/02 08:37:16;;;;;;;2.45;0.90;;;17.50;99.90;;;;;;5051907;28;25101;-67
2021/08/02 08:39:42;;;;;;;4.28;1.20;;;17.40;99.90;;;;;;5068003;28;25102;-66
2021/08/02 08:42:08;;;;;;;3.28;0.90;;;17.30;99.90;;;;;;5050973;28;25092;-67
2021/08/02 08:44:34;;;;;;;4.78;1.10;;;17.40;99.90;;;;;;5069053;28;25135;-67
2021/08/02 08:47:00;;;;;;;8.23;1.33;;;17.40;99.90;;;;;;5069124;28;25061;-67
2021/08/02 08:49:26;;;;;;;6.25;1.15;;;17.50;99.90;;;;;;5060338;28;25071;-68
2021/08/02 08:51:53;;;;;;;5.70;1.10;;;17.40;99.90;;;;;;5065259;28;25138;-68
2021/08/02 08:54:20;;;;;;;5.63;1.63;;;17.40;99.90;;;;;;5066539;28;25080;-67
2021/08/02 08:56:45;;;;;;;7.45;1.52;;;17.30;99.90;;;;;;5074338;28;25084;-65
2021/08/02 08:59:13;;;;;;;9.18;1.60;;;17.10;99.90;;;;;;5077009;28;25100;-68
2021/08/02 09:01:41;;;;;;;7.53;1.35;;;16.90;99.90;;;;;;5067041;28;25081;-68
2021/08/02 09:04:07;;;;;;;5.47;1.27;;;16.60;99.90;;;;;;5069301;28;25047;-67
2021/08/02 09:06:46;;;;;;;6.43;1.30;;;16.30;99.90;;;;;;5067855;28;25070;-68
2021/08/02 09:09:32;;;;;;;2.67;1.30;;;16.40;99.90;;;;;;5047668;28;25098;-68
2021/08/02 09:12:14;;;;;;;6.75;1.70;;;16.40;99.90;;;;;;5060066;28;25076;-67
2021/08/02 09:14:53;;;;;;;3.15;1.20;;;16.30;99.90;;;;;;5084585;28;25059;-69
2021/08/02 09:17:36;;;;;;;4.45;1.17;;;16.30;99.90;;;;;;5068052;28;25059;-67
2021/08/02 09:20:06;;;;;;;2.83;0.93;;;16.30;99.90;;;;;;5059683;28;25048;-66
2021/08/02 09:22:36;;;;;;;4.68;1.17;;;16.30;99.90;;;;;;5061360;28;25061;-66
2021/08/02 09:25:12;;;;;;;3.25;0.90;;;16.40;99.90;;;;;;5061570;28;25054;-66
2021/08/02 09:27:39;;;;;;;3.45;0.90;;;16.30;99.90;;;;;;5065398;28;25149;-66
2021/08/02 09:30:18;;;;;;;4.43;1.52;;;16.50;99.90;;;;;;5054651;28;25123;-67
2021/08/02 09:32:47;;;;;;;4.47;0.90;;;16.40;99.90;;;;;;5062838;28;25135;-67
2021/08/02 09:35:13;;;;;;;5.90;1.23;;;16.50;99.90;;;;;;5057002;28;25057;-68
2021/08/02 09:37:38;;;;;;;3.03;1.17;;;16.70;99.90;;;;;;5070013;28;25068;-66
2021/08/02 09:40:05;;;;;;;3.83;1.13;;;16.80;99.90;;;;;;5054431;28;25075;-67
2021/08/02 09:42:31;;;;;;;2.38;1.05;;;16.70;99.90;;;;;;5058515;28;25115;-68
2021/08/02 09:45:00;;;;;;;6.05;1.20;;;16.80;99.90;;;;;;5053821;28;25106;-67
2021/08/02 09:47:29;;;;;;;2.55;1.10;;;16.90;99.90;;;;;;5064833;28;25089;-66
2021/08/02 09:49:55;;;;;;;9.93;1.63;;;16.80;99.90;;;;;;5058707;28;25144;-66
2021/08/02 09:52:21;;;;;;;5.35;1.23;;;16.80;99.90;;;;;;5068133;28;25059;-65
2021/08/02 09:54:46;;;;;;;3.15;1.65;;;16.80;99.90;;;;;;5070617;28;25133;-66
2021/08/02 09:57:12;;;;;;;3.85;1.17;;;16.80;99.90;;;;;;5072103;28;25164;-65
2021/08/02 09:59:40;;;;;;;4.18;0.90;;;16.90;99.90;;;;;;5071800;28;25095;-68
2021/08/02 10:02:07;;;;;;;3.30;0.85;;;16.90;99.90;;;;;;5090606;28;25064;-68
2021/08/02 10:04:33;;;;;;;2.00;1.08;;;17.00;99.90;;;;;;5065815;28;25072;-68
2021/08/02 10:06:59;;;;;;;2.15;0.82;;;16.90;99.90;;;;;;5095660;28;25064;-68
2021/08/02 10:09:28;;;;;;;4.18;1.17;;;16.90;99.90;;;;;;5062617;28;25350;-67
2021/08/02 10:11:58;;;;;;;6.72;1.08;;;16.80;99.90;;;;;;5069156;28;25091;-68
2021/08/02 10:14:31;;;;;;;11.25;1.00;;;16.90;99.90;;;;;;5077871;28;25125;-68
2021/08/02 10:17:08;;;;;;;4.28;1.20;;;17.20;99.90;;;;;;5067012;28;25075;-66
2021/08/02 10:19:44;;;;;;;3.65;1.05;;;17.40;99.90;;;;;;5060901;28;25170;-68
2021/08/02 10:22:10;;;;;;;4.10;1.33;;;17.50;99.90;;;;;;5069943;28;25105;-66
2021/08/02 10:24:52;;;;;;;2.30;0.90;;;17.60;99.90;;;;;;5077047;28;25056;-66
2021/08/02 10:27:26;;;;;;;3.60;1.20;;;17.70;99.90;;;;;;5066859;28;25094;-67
2021/08/02 10:29:51;;;;;;;7.20;1.17;;;17.60;99.90;;;;;;5065631;28;25054;-67
2021/08/02 10:32:21;;;;;;;3.65;1.10;;;18.00;99.90;;;;;;5066276;28;25063;-67
2021/08/02 10:34:55;;;;;;;7.28;1.35;;;18.30;99.90;;;;;;5067253;28;25151;-67
2021/08/02 10:37:33;;;;;;;5.03;1.33;;;18.20;99.90;;;;;;5068106;28;25076;-68
2021/08/02 10:40:08;;;;;;;2.38;1.02;;;18.20;99.90;;;;;;5060105;28;25141;-66
2021/08/02 10:42:48;;;;;;;3.13;1.23;;;18.20;99.90;;;;;;5067691;28;25125;-67
2021/08/02 10:45:14;;;;;;;5.03;0.95;;;18.20;99.90;;;;;;5048730;28;25103;-67
2021/08/02 10:47:41;;;;;;;3.47;1.10;;;17.80;99.90;;;;;;5066847;28;25088;-68
2021/08/02 10:50:08;;;;;;;2.45;1.10;;;17.80;99.90;;;;;;5062900;28;25078;-70
2021/08/02 10:52:34;;;;;;;5.15;1.33;;;17.80;99.90;;;;;;5057110;28;25136;-67
2021/08/02 10:55:00;;;;;;;5.38;1.20;;;17.80;99.90;;;;;;5058817;28;25073;-65
2021/08/02 10:57:26;;;;;;;5.72;1.08;;;17.60;99.90;;;;;;5057898;28;25068;-67
2021/08/02 10:59:51;;;;;;;3.97;0.85;;;17.40;99.90;;;;;;5063663;28;25060;-68
2021/08/02 11:02:19;;;;;;;1.75;0.77;;;17.40;99.90;;;;;;5056264;28;25066;-67
2021/08/02 11:04:53;;;;;;;4.50;1.00;;;17.50;99.90;;;;;;5058754;28;25063;-65
2021/08/02 11:07:20;;;;;;;2.60;1.10;;;17.40;99.90;;;;;;5066215;28;25072;-66
2021/08/02 11:09:46;;;;;;;5.63;0.93;;;17.40;99.90;;;;;;5066152;28;25125;-67
2021/08/02 11:12:13;;;;;;;4.90;1.13;;;17.40;99.90;;;;;;5047088;28;25066;-67
2021/08/02 11:14:50;;;;;;;3.88;1.00;;;17.50;99.90;;;;;;5065979;28;25102;-68
2021/08/02 11:17:24;;;;;;;5.30;0.98;;;17.70;99.90;;;;;;5063842;28;25081;-68
2021/08/02 11:20:01;;;;;;;7.20;1.63;;;17.90;99.90;;;;;;5060516;28;25053;-67
2021/08/02 11:22:27;;;;;;;4.95;1.10;;;17.90;99.90;;;;;;5057120;28;25080;-66
2021/08/02 11:24:57;;;;;;;5.78;1.95;;;17.90;99.90;;;;;;5055524;28;25058;-67
2021/08/02 11:27:24;;;;;;;4.65;1.35;;;17.80;99.90;;;;;;5064161;28;25050;-69
2021/08/02 11:29:51;;;;;;;5.22;2.03;;;17.90;99.90;;;;;;5069263;28;25116;-67
2021/08/02 11:32:20;;;;;;;4.63;1.33;;;18.00;99.90;;;;;;5069221;28;25065;-67
2021/08/02 11:34:55;;;;;;;4.82;1.30;;;18.10;99.90;;;;;;5064708;28;25070;-66
2021/08/02 11:37:23;;;;;;;4.68;1.65;;;17.90;99.90;;;;;;5059858;28;25056;-67
2021/08/02 11:40:05;;;;;;;5.68;1.80;;;17.80;99.90;;;;;;5069375;28;25052;-68
2021/08/02 11:42:33;;;;;;;4.15;1.00;;;17.70;99.90;;;;;;5072211;28;25070;-68
2021/08/02 11:45:01;;;;;;;4.85;1.35;;;17.90;99.90;;;;;;5067619;28;25109;-67
2021/08/02 11:47:31;;;;;;;9.10;1.30;;;17.80;99.90;;;;;;5070378;28;25102;-67
2021/08/02 11:49:57;;;;;;;5.72;1.45;;;17.90;99.90;;;;;;5066869;28;25131;-65
2021/08/02 11:52:25;;;;;;;5.80;1.20;;;18.00;99.90;;;;;;5065118;28;25140;-67
2021/08/02 11:54:59;;;;;;;5.30;1.20;;;18.00;99.90;;;;;;5070990;28;25097;-67
2021/08/02 11:57:24;;;;;;;5.50;1.25;;;18.00;99.90;;;;;;5070245;28;25048;-67
2021/08/02 12:00:17;;;;;;;4.97;1.00;;;18.00;99.90;;;;;;5068856;28;25064;-68
2021/08/02 12:02:48;;;;;;;5.10;1.20;;;17.90;99.90;;;;;;5072117;28;25126;-67
2021/08/02 12:05:30;;;;;;;5.72;1.45;;;18.10;99.90;;;;;;5080781;28;25134;-67
2021/08/02 12:08:06;;;;;;;4.63;1.50;;;17.90;99.90;;;;;;5081966;28;25140;-69
2021/08/02 12:10:32;;;;;;;7.05;1.45;;;17.90;99.90;;;;;;5055349;28;25078;-67
2021/08/02 12:13:00;;;;;;;5.20;1.38;;;18.30;99.90;;;;;;5068917;28;25083;-68
2021/08/02 12:15:28;;;;;;;5.13;1.70;;;18.60;99.90;;;;;;5078150;28;25160;-66
2021/08/02 12:17:55;;;;;;;5.03;1.33;;;18.30;99.90;;;;;;5064367;28;25100;-66
2021/08/02 12:20:38;;;;;;;7.47;1.42;;;18.20;99.90;;;;;;5069327;28;25101;-67
2021/08/02 12:23:08;;;;;;;8.10;1.60;;;18.30;99.90;;;;;;5073282;28;25077;-68
2021/08/02 12:25:46;;;;;;;9.13;1.15;;;18.60;99.90;;;;;;5076998;28;25077;-68
2021/08/02 12:28:12;;;;;;;5.15;1.10;;;18.80;99.90;;;;;;5068841;28;25060;-69
2021/08/02 12:30:39;;;;;;;2.60;1.42;;;19.30;99.90;;;;;;5054358;28;25100;-68
2021/08/02 12:33:06;;;;;;;6.63;1.73;;;19.60;99.90;;;;;;5053682;28;25074;-69
2021/08/02 12:35:32;;;;;;;4.38;1.08;;;19.20;99.90;;;;;;5057547;28;25108;-66
2021/08/02 12:38:03;;;;;;;8.25;2.20;;;19.10;99.90;;;;;;5055916;28;25162;-66
2021/08/02 12:40:29;;;;;;;3.70;1.15;;;19.10;99.90;;;;;;5064487;28;25115;-67
2021/08/02 12:42:55;;;;;;;8.43;1.48;;;19.30;99.90;;;;;;5059211;28;25140;-67
2021/08/02 12:45:20;;;;;;;3.28;0.95;;;19.30;99.90;;;;;;5068849;28;25080;-66
2021/08/02 12:47:47;;;;;;;5.60;1.60;;;19.20;99.90;;;;;;5060512;28;25056;-67
2021/08/02 12:50:15;;;;;;;5.55;1.45;;;19.30;99.90;;;;;;5060483;28;25093;-66